Time;durP1;ratioP1;P1;durP2;ratioP2;P2;SDS_P1;SDS_P2;PMS_P1;PMS_P2;Temp;Humidity;BMP_temperature;BMP_pressure;BME280_temperature;BME280_humidity;BME280_pressure;Samples;Min_cycle;Max_cycle;Signal;HPM_P1;HPM_P2
2023/04/25 00:00:42;;;;;;;1.85;1.63;;;7.20;99.90;;;;;;5071526;28;20254;-70
2023/04/25 00:03:11;;;;;;;1.95;1.60;;;7.30;99.90;;;;;;5070789;28;20224;-67
2023/04/25 00:05:38;;;;;;;1.83;1.70;;;7.30;99.90;;;;;;5071589;28;20216;-70
2023/04/25 00:08:05;;;;;;;1.80;1.50;;;7.30;99.90;;;;;;5070666;28;20269;-67
2023/04/25 00:10:32;;;;;;;2.28;1.90;;;7.30;99.90;;;;;;5071234;28;20224;-67
2023/04/25 00:13:02;;;;;;;1.98;1.63;;;7.30;99.90;;;;;;5070685;28;20224;-67
2023/04/25 00:15:30;;;;;;;1.73;1.63;;;7.30;99.90;;;;;;5071505;28;20201;-67
2023/04/25 00:17:57;;;;;;;2.60;2.35;;;7.30;99.90;;;;;;5070568;28;20558;-68
2023/04/25 00:20:25;;;;;;;2.40;2.20;;;7.30;99.90;;;;;;5070478;28;20286;-67
2023/04/25 00:22:53;;;;;;;1.65;1.55;;;7.20;99.90;;;;;;5070570;28;20293;-67
2023/04/25 00:25:20;;;;;;;2.20;2.00;;;7.20;99.90;;;;;;5070579;28;20232;-67
2023/04/25 00:27:46;;;;;;;2.10;1.90;;;7.20;99.90;;;;;;5071131;28;20196;-67
2023/04/25 00:30:14;;;;;;;2.35;1.92;;;7.10;99.90;;;;;;5070475;28;20204;-67
2023/04/25 00:32:41;;;;;;;1.75;1.60;;;7.10;99.90;;;;;;5070079;28;20224;-67
2023/04/25 00:35:08;;;;;;;1.80;1.70;;;7.10;99.90;;;;;;5070696;28;20201;-68
2023/04/25 00:37:36;;;;;;;2.40;2.20;;;7.10;99.90;;;;;;5070982;28;20204;-68
2023/04/25 00:40:07;;;;;;;2.33;1.63;;;7.10;99.90;;;;;;5070536;28;20234;-68
2023/04/25 00:42:35;;;;;;;2.00;1.80;;;7.10;99.90;;;;;;5070581;28;20303;-68
2023/04/25 00:45:02;;;;;;;1.65;1.50;;;7.10;99.90;;;;;;5069980;28;20200;-68
2023/04/25 00:47:30;;;;;;;2.65;1.60;;;7.10;99.90;;;;;;5070571;28;20220;-67
2023/04/25 00:49:56;;;;;;;2.88;2.00;;;7.10;99.90;;;;;;5070302;28;20203;-68
2023/04/25 00:52:23;;;;;;;2.17;2.03;;;7.10;99.90;;;;;;5070215;28;20200;-68
2023/04/25 00:54:52;;;;;;;2.50;2.30;;;7.00;99.90;;;;;;5099605;23;20225;-92
2023/04/25 00:59:47;;;;;;;2.80;1.50;;;7.00;99.90;;;;;;5061698;28;20213;-71
2023/04/25 01:02:14;;;;;;;1.83;1.55;;;7.00;99.90;;;;;;5049922;28;20224;-71
2023/04/25 01:04:41;;;;;;;4.18;1.88;;;7.10;99.90;;;;;;5030437;28;20197;-72
2023/04/25 01:07:08;;;;;;;1.92;1.73;;;7.10;99.90;;;;;;5030394;28;20275;-70
2023/04/25 01:09:35;;;;;;;1.95;1.77;;;7.10;99.90;;;;;;5030585;28;20244;-70
2023/04/25 01:12:04;;;;;;;1.75;1.65;;;7.10;99.90;;;;;;5029869;28;20202;-70
2023/04/25 01:14:30;;;;;;;2.85;1.45;;;7.10;99.90;;;;;;5030609;28;20226;-71
2023/04/25 01:16:57;;;;;;;2.28;1.75;;;7.20;99.90;;;;;;5047556;28;20567;-71
2023/04/25 01:19:25;;;;;;;2.15;1.65;;;7.20;99.90;;;;;;5050068;28;20200;-72
2023/04/25 01:21:53;;;;;;;2.00;1.80;;;7.30;99.90;;;;;;5049835;28;20292;-72
2023/04/25 01:24:20;;;;;;;1.98;1.58;;;7.30;99.90;;;;;;5030265;28;20217;-71
2023/04/25 01:26:49;;;;;;;1.85;1.75;;;7.30;99.90;;;;;;5045926;28;20216;-72
2023/04/25 01:29:16;;;;;;;2.10;1.90;;;7.30;99.90;;;;;;5050366;28;20197;-72
2023/04/25 01:31:45;;;;;;;2.65;1.95;;;7.30;99.90;;;;;;5043466;28;20197;-72
2023/04/25 01:34:12;;;;;;;2.55;2.20;;;7.30;99.90;;;;;;5030412;28;20252;-72
2023/04/25 01:36:39;;;;;;;2.10;1.90;;;7.30;99.90;;;;;;5036468;28;20652;-71
2023/04/25 01:39:07;;;;;;;2.67;2.20;;;7.30;99.90;;;;;;5050018;28;20220;-71
2023/04/25 01:41:35;;;;;;;2.28;1.92;;;7.20;99.90;;;;;;5036198;28;20685;-71
2023/04/25 01:44:02;;;;;;;2.13;1.90;;;7.20;99.90;;;;;;5031121;28;20619;-71
2023/04/25 01:46:29;;;;;;;2.38;2.17;;;7.00;99.90;;;;;;5042024;28;20688;-71
2023/04/25 01:48:56;;;;;;;1.77;1.67;;;7.00;99.90;;;;;;5041251;28;20205;-72
2023/04/25 01:51:23;;;;;;;2.35;2.00;;;7.00;99.90;;;;;;5042343;28;20220;-71
2023/04/25 01:53:50;;;;;;;2.13;1.92;;;6.90;99.90;;;;;;5049898;28;20296;-71
2023/04/25 01:56:19;;;;;;;2.10;1.90;;;6.90;99.90;;;;;;5050117;28;20200;-71
2023/04/25 01:58:46;;;;;;;1.60;1.50;;;7.00;99.90;;;;;;5049998;28;20197;-72
2023/04/25 02:01:12;;;;;;;2.28;2.00;;;6.90;99.90;;;;;;5049804;28;20687;-72
2023/04/25 02:03:39;;;;;;;2.70;1.98;;;6.90;99.90;;;;;;5050062;28;20217;-71
2023/04/25 02:06:06;;;;;;;2.25;1.85;;;6.90;99.90;;;;;;5049962;28;20201;-71
2023/04/25 02:08:33;;;;;;;2.05;1.52;;;6.90;99.90;;;;;;5050078;28;20197;-72
2023/04/25 02:11:00;;;;;;;2.70;1.60;;;6.80;99.90;;;;;;5049375;28;20209;-71
2023/04/25 02:13:28;;;;;;;1.80;1.60;;;6.80;99.90;;;;;;5050277;28;20244;-71
2023/04/25 02:15:54;;;;;;;2.25;1.60;;;6.80;99.90;;;;;;5049983;28;20291;-72
2023/04/25 02:18:21;;;;;;;1.38;1.27;;;6.80;99.90;;;;;;5041738;28;20670;-71
2023/04/25 02:20:48;;;;;;;3.05;2.40;;;6.80;99.90;;;;;;5049762;28;20193;-71
2023/04/25 02:23:15;;;;;;;2.35;1.65;;;6.80;99.90;;;;;;5049529;28;20225;-71
2023/04/25 02:25:42;;;;;;;2.47;1.75;;;6.80;99.90;;;;;;5049764;28;20205;-71
2023/04/25 02:28:09;;;;;;;2.47;1.60;;;6.80;99.90;;;;;;5049588;28;20300;-71
2023/04/25 02:30:37;;;;;;;2.08;1.65;;;6.70;99.90;;;;;;5049915;28;20201;-72
2023/04/25 02:33:04;;;;;;;3.15;1.73;;;6.70;99.90;;;;;;5049204;28;20236;-71
2023/04/25 02:35:30;;;;;;;1.75;1.52;;;6.70;99.90;;;;;;5049666;28;20652;-71
2023/04/25 02:37:57;;;;;;;3.08;1.65;;;6.60;99.90;;;;;;5049265;28;20200;-71
2023/04/25 02:40:24;;;;;;;2.17;1.95;;;6.60;99.90;;;;;;5049785;28;20231;-71
2023/04/25 02:42:51;;;;;;;1.70;1.55;;;6.60;99.90;;;;;;5049040;28;20221;-71
2023/04/25 02:45:18;;;;;;;2.72;1.55;;;6.60;99.90;;;;;;5049657;28;20258;-71
2023/04/25 02:47:46;;;;;;;1.63;1.52;;;6.60;99.90;;;;;;5049524;28;20344;-71
2023/04/25 02:50:13;;;;;;;2.53;1.50;;;6.60;99.90;;;;;;5053365;28;20289;-71
2023/04/25 02:52:39;;;;;;;2.33;1.75;;;6.60;99.90;;;;;;5053060;28;20229;-72
2023/04/25 02:55:07;;;;;;;2.60;1.45;;;6.60;99.90;;;;;;5053363;28;20197;-72
2023/04/25 02:57:34;;;;;;;1.58;1.48;;;6.60;99.90;;;;;;5053511;28;20189;-71
2023/04/25 03:00:01;;;;;;;2.30;2.00;;;6.60;99.90;;;;;;5053379;28;20201;-71
2023/04/25 03:02:27;;;;;;;2.65;1.63;;;6.50;99.90;;;;;;5053030;28;20197;-71
2023/04/25 03:04:55;;;;;;;2.60;2.00;;;6.50;99.90;;;;;;5053277;28;20254;-71
2023/04/25 03:07:22;;;;;;;1.70;1.60;;;6.50;99.90;;;;;;5052911;28;20338;-71
2023/04/25 03:09:49;;;;;;;1.50;1.40;;;6.50;99.90;;;;;;5053326;28;20197;-71
2023/04/25 03:12:16;;;;;;;4.72;1.67;;;6.60;99.90;;;;;;5052665;28;20237;-71
2023/04/25 03:14:43;;;;;;;1.70;1.60;;;6.50;99.90;;;;;;5053517;28;20197;-72
2023/04/25 03:17:10;;;;;;;1.30;1.20;;;6.50;99.90;;;;;;5052808;28;20201;-71
2023/04/25 03:19:36;;;;;;;2.67;1.80;;;6.50;99.90;;;;;;5052960;28;20690;-72
2023/04/25 03:22:04;;;;;;;1.70;1.60;;;6.50;99.90;;;;;;5052373;28;20211;-72
2023/04/25 03:24:31;;;;;;;1.60;1.50;;;6.60;99.90;;;;;;5053048;28;20712;-71
2023/04/25 03:26:58;;;;;;;4.45;1.75;;;6.60;99.90;;;;;;5052548;28;20231;-71
2023/04/25 03:29:26;;;;;;;1.98;1.50;;;6.60;99.90;;;;;;5052427;28;20197;-71
2023/04/25 03:31:53;;;;;;;2.25;1.80;;;6.60;99.90;;;;;;5039446;28;20202;-72
2023/04/25 03:34:21;;;;;;;8.88;2.15;;;6.60;99.90;;;;;;5041475;28;20216;-71
2023/04/25 03:36:48;;;;;;;3.03;2.08;;;6.60;99.90;;;;;;5041068;28;20607;-71
2023/04/25 03:39:16;;;;;;;1.52;1.42;;;6.60;99.90;;;;;;5042009;28;20197;-71
2023/04/25 03:41:42;;;;;;;3.50;2.05;;;6.60;99.90;;;;;;5040894;28;20592;-71
2023/04/25 03:44:09;;;;;;;2.15;1.80;;;6.70;99.90;;;;;;5040001;28;20228;-71
2023/04/25 03:46:36;;;;;;;2.15;1.70;;;6.70;99.90;;;;;;5038794;28;20197;-71
2023/04/25 03:49:03;;;;;;;1.73;1.63;;;6.70;99.90;;;;;;5050861;28;20203;-71
2023/04/25 03:51:30;;;;;;;1.98;1.70;;;6.70;99.90;;;;;;5041609;28;20209;-71
2023/04/25 03:53:57;;;;;;;2.10;1.90;;;6.70;99.90;;;;;;5040324;28;20217;-71
2023/04/25 03:56:25;;;;;;;2.10;1.60;;;6.60;99.90;;;;;;5040662;28;20197;-71
2023/04/25 03:58:52;;;;;;;1.83;1.60;;;6.70;99.90;;;;;;5041568;28;20205;-71
2023/04/25 04:01:19;;;;;;;3.67;2.17;;;6.70;99.90;;;;;;5039173;28;20229;-71
2023/04/25 04:03:46;;;;;;;2.22;1.58;;;6.70;99.90;;;;;;5040135;28;20300;-71
2023/04/25 04:06:13;;;;;;;2.58;2.13;;;6.70;99.90;;;;;;5040510;28;20198;-71
2023/04/25 04:08:39;;;;;;;1.92;1.75;;;6.70;99.90;;;;;;5041049;28;20220;-71
2023/04/25 04:11:06;;;;;;;1.92;1.73;;;6.60;99.90;;;;;;5038172;28;20576;-71
2023/04/25 04:13:34;;;;;;;2.45;1.90;;;6.60;99.90;;;;;;5039799;28;20459;-70
2023/04/25 04:16:01;;;;;;;1.88;1.75;;;6.60;99.90;;;;;;5040100;28;20201;-70
2023/04/25 04:18:28;;;;;;;2.25;1.80;;;6.50;99.90;;;;;;5042427;28;20198;-70
2023/04/25 04:20:54;;;;;;;2.03;1.83;;;6.60;99.90;;;;;;5036551;28;20209;-70
2023/04/25 04:23:22;;;;;;;3.60;2.40;;;6.50;99.90;;;;;;5041049;28;20221;-70
2023/04/25 04:25:49;;;;;;;2.30;2.10;;;6.50;99.90;;;;;;5039051;28;20288;-70
2023/04/25 04:28:16;;;;;;;5.88;2.17;;;6.40;99.90;;;;;;5040876;28;20228;-70
2023/04/25 04:30:46;;;;;;;4.57;1.85;;;6.40;99.90;;;;;;5051173;28;20201;-70
2023/04/25 04:33:14;;;;;;;1.77;1.60;;;6.40;99.90;;;;;;5050376;28;20221;-70
2023/04/25 04:35:42;;;;;;;2.45;2.00;;;6.40;99.90;;;;;;5051567;28;20708;-70
2023/04/25 04:38:10;;;;;;;2.10;1.90;;;6.50;99.90;;;;;;5049389;28;20292;-71
2023/04/25 04:40:37;;;;;;;2.40;2.20;;;6.40;99.90;;;;;;5051800;28;20231;-70
2023/04/25 04:43:04;;;;;;;2.40;1.80;;;6.40;99.90;;;;;;5054765;28;20263;-71
2023/04/25 04:45:31;;;;;;;4.30;2.15;;;6.40;99.90;;;;;;5054783;28;20558;-71
2023/04/25 04:47:59;;;;;;;2.20;2.00;;;6.40;99.90;;;;;;5053740;28;20703;-70
2023/04/25 04:50:26;;;;;;;2.05;1.80;;;6.40;99.90;;;;;;5053809;28;20224;-71
2023/04/25 04:52:54;;;;;;;4.95;2.03;;;6.30;99.90;;;;;;5053071;28;20270;-70
2023/04/25 04:55:21;;;;;;;3.22;2.13;;;6.20;99.90;;;;;;5054702;28;20212;-71
2023/04/25 04:57:47;;;;;;;3.55;1.90;;;6.30;99.90;;;;;;5055062;28;20209;-71
2023/04/25 05:00:15;;;;;;;1.98;1.75;;;6.40;99.90;;;;;;5054164;28;20205;-71
2023/04/25 05:02:42;;;;;;;2.63;1.65;;;6.40;99.90;;;;;;5053599;28;20216;-71
2023/04/25 05:05:10;;;;;;;2.38;1.98;;;6.50;99.90;;;;;;5053833;28;20201;-70
2023/04/25 05:07:37;;;;;;;1.92;1.73;;;6.60;99.90;;;;;;5048886;28;20237;-71
2023/04/25 05:10:04;;;;;;;3.33;2.35;;;6.60;99.90;;;;;;5033639;28;20210;-71
2023/04/25 05:12:31;;;;;;;4.07;2.10;;;6.70;99.90;;;;;;5051370;28;20571;-71
2023/04/25 05:14:58;;;;;;;2.83;1.70;;;6.80;99.90;;;;;;5052389;28;20201;-71
2023/04/25 05:17:25;;;;;;;2.40;2.15;;;6.90;99.90;;;;;;5052167;28;20197;-71
2023/04/25 05:19:51;;;;;;;2.13;1.80;;;6.90;99.90;;;;;;5051931;28;20204;-70
2023/04/25 05:22:19;;;;;;;2.58;2.28;;;6.90;99.90;;;;;;5051149;28;20201;-70
2023/04/25 05:24:48;;;;;;;2.65;2.28;;;7.00;99.90;;;;;;5051228;28;20223;-70
2023/04/25 05:27:14;;;;;;;2.60;1.95;;;7.00;99.90;;;;;;5050791;28;20221;-70
2023/04/25 05:29:41;;;;;;;2.92;2.20;;;7.10;99.90;;;;;;5050755;28;20628;-70
2023/04/25 05:32:09;;;;;;;2.55;1.85;;;7.10;99.90;;;;;;5050162;28;20224;-70
2023/04/25 05:34:36;;;;;;;2.78;2.17;;;7.10;99.90;;;;;;5050665;28;20236;-70
2023/04/25 05:37:03;;;;;;;2.75;2.22;;;7.10;99.90;;;;;;5050327;28;20725;-71
2023/04/25 05:39:31;;;;;;;1.80;1.65;;;7.10;99.90;;;;;;5050711;28;20226;-70
2023/04/25 05:41:58;;;;;;;2.17;2.00;;;7.10;99.90;;;;;;5050402;28;20228;-70
2023/04/25 05:44:24;;;;;;;5.97;2.15;;;7.20;99.90;;;;;;5050610;28;20230;-71
2023/04/25 05:46:51;;;;;;;2.17;1.90;;;7.20;99.90;;;;;;5051661;28;20225;-71
2023/04/25 05:49:18;;;;;;;2.65;2.22;;;7.30;99.90;;;;;;5050867;28;20213;-71
2023/04/25 05:51:44;;;;;;;3.20;2.05;;;7.30;99.90;;;;;;5050244;28;20576;-70
2023/04/25 05:54:11;;;;;;;3.70;2.00;;;7.40;99.90;;;;;;5050279;28;20225;-71
2023/04/25 05:56:39;;;;;;;3.25;2.08;;;7.50;99.90;;;;;;5050761;28;20220;-70
2023/04/25 05:59:06;;;;;;;2.22;2.03;;;7.50;99.90;;;;;;5049842;28;20706;-71
2023/04/25 06:01:33;;;;;;;3.08;2.10;;;7.50;99.90;;;;;;5049804;28;20243;-70
2023/04/25 06:04:00;;;;;;;2.60;2.40;;;7.60;99.90;;;;;;5049987;28;20704;-70
2023/04/25 06:06:27;;;;;;;5.57;2.17;;;7.60;99.90;;;;;;5050622;28;20212;-70
2023/04/25 06:08:54;;;;;;;5.63;3.03;;;7.70;99.90;;;;;;5050198;28;20221;-70
2023/04/25 06:11:21;;;;;;;2.80;2.60;;;7.70;99.90;;;;;;5049834;28;20235;-71
2023/04/25 06:13:49;;;;;;;3.22;2.92;;;7.80;99.90;;;;;;5049860;28;20279;-71
2023/04/25 06:16:16;;;;;;;3.55;2.08;;;7.80;99.90;;;;;;5049862;28;20604;-71
2023/04/25 06:18:42;;;;;;;2.97;2.67;;;7.80;99.90;;;;;;5049876;28;20189;-70
2023/04/25 06:21:09;;;;;;;4.30;2.88;;;7.90;99.90;;;;;;5052036;28;20353;-70
2023/04/25 06:23:36;;;;;;;5.03;2.60;;;7.90;99.90;;;;;;5046302;28;20566;-70
2023/04/25 06:26:03;;;;;;;2.90;2.63;;;7.90;99.90;;;;;;5055914;28;20992;-70
2023/04/25 06:28:29;;;;;;;2.42;2.22;;;7.90;99.90;;;;;;5055772;28;20216;-70
2023/04/25 06:30:58;;;;;;;3.78;2.33;;;7.90;99.90;;;;;;5057178;28;20227;-69
2023/04/25 06:33:25;;;;;;;2.53;2.28;;;7.90;99.90;;;;;;5053312;28;20517;-70
2023/04/25 06:35:51;;;;;;;4.10;3.05;;;7.90;99.90;;;;;;5053581;28;20687;-70
2023/04/25 06:38:18;;;;;;;2.95;2.25;;;7.90;99.90;;;;;;5056899;28;20208;-70
2023/04/25 06:40:45;;;;;;;2.90;2.40;;;7.90;99.90;;;;;;5056229;28;20226;-70
2023/04/25 06:43:11;;;;;;;2.70;2.50;;;7.90;99.90;;;;;;5053865;28;20719;-70
2023/04/25 06:45:38;;;;;;;3.15;2.65;;;7.90;99.90;;;;;;5056476;28;20202;-70
2023/04/25 06:48:07;;;;;;;5.10;2.45;;;7.90;99.90;;;;;;5055887;28;20221;-70
2023/04/25 06:50:35;;;;;;;5.57;2.63;;;7.90;99.90;;;;;;5035866;28;20661;-70
2023/04/25 06:53:02;;;;;;;4.30;2.58;;;7.90;99.90;;;;;;5041960;28;20565;-70
2023/04/25 06:57:56;;;;;;;2.28;2.08;;;7.80;99.90;;;;;;5037626;28;20669;-70
2023/04/25 07:00:23;;;;;;;2.92;2.20;;;7.80;99.90;;;;;;5033176;28;20346;-70
2023/04/25 07:02:50;;;;;;;1.95;1.80;;;7.80;99.90;;;;;;5033024;28;20317;-69
2023/04/25 07:05:18;;;;;;;2.08;1.88;;;7.80;99.90;;;;;;5050378;28;20205;-69
2023/04/25 07:07:45;;;;;;;2.47;2.25;;;7.90;99.90;;;;;;5053200;28;20235;-69
2023/04/25 07:10:11;;;;;;;2.00;1.90;;;7.80;99.90;;;;;;5045205;28;20209;-69
2023/04/25 07:12:38;;;;;;;2.13;1.92;;;7.80;99.90;;;;;;5043807;28;20588;-69
2023/04/25 07:15:07;;;;;;;2.22;2.03;;;7.80;99.90;;;;;;5053149;28;20272;-69
2023/04/25 07:17:34;;;;;;;2.38;2.10;;;7.80;99.90;;;;;;5052487;28;20660;-69
2023/04/25 07:20:01;;;;;;;1.95;1.85;;;7.80;99.90;;;;;;5053062;28;20201;-70
2023/04/25 07:22:29;;;;;;;3.70;2.75;;;7.70;99.90;;;;;;5052297;28;20571;-69
2023/04/25 07:24:56;;;;;;;2.40;1.90;;;7.80;99.90;;;;;;5053058;28;20204;-69
2023/04/25 07:27:23;;;;;;;3.25;2.85;;;7.80;99.90;;;;;;5052416;28;20204;-69
2023/04/25 07:29:50;;;;;;;3.88;2.00;;;7.80;99.90;;;;;;5052411;28;20223;-69
2023/04/25 07:32:16;;;;;;;3.35;2.47;;;7.70;99.90;;;;;;5051323;28;20212;-70
2023/04/25 07:34:43;;;;;;;2.40;2.20;;;7.70;99.90;;;;;;5051307;28;20205;-69
2023/04/25 07:37:10;;;;;;;2.65;2.38;;;7.80;99.90;;;;;;5052289;28;20205;-70
2023/04/25 07:39:38;;;;;;;3.65;2.92;;;7.80;99.90;;;;;;5051497;28;20679;-70
2023/04/25 07:42:07;;;;;;;3.25;2.70;;;7.90;99.90;;;;;;5051783;28;20205;-69
2023/04/25 07:44:38;;;;;;;2.90;2.65;;;7.90;99.90;;;;;;5051731;28;22286;-69
2023/04/25 07:47:05;;;;;;;3.35;2.45;;;7.90;99.90;;;;;;5052227;28;20201;-70
2023/04/25 07:49:33;;;;;;;2.15;1.95;;;8.00;99.90;;;;;;5051350;28;20223;-70
2023/04/25 07:52:00;;;;;;;3.63;3.08;;;8.00;99.90;;;;;;5051297;28;20763;-70
2023/04/25 07:54:27;;;;;;;3.70;3.08;;;8.00;99.90;;;;;;5051363;28;20217;-70
2023/04/25 07:56:55;;;;;;;6.10;3.20;;;7.90;99.90;;;;;;5051898;28;20197;-70
2023/04/25 07:59:21;;;;;;;4.45;3.00;;;8.00;99.90;;;;;;5051424;28;20676;-70
2023/04/25 08:01:48;;;;;;;3.17;2.72;;;7.90;99.90;;;;;;5051653;28;20197;-70
2023/04/25 08:04:15;;;;;;;4.18;3.45;;;7.90;99.90;;;;;;5051264;28;20224;-70
2023/04/25 08:06:42;;;;;;;4.45;3.10;;;7.90;99.90;;;;;;5051764;28;20205;-69
2023/04/25 08:09:09;;;;;;;2.88;2.33;;;7.90;99.90;;;;;;5044206;28;20676;-69
2023/04/25 08:11:35;;;;;;;3.30;2.67;;;7.90;99.90;;;;;;5050607;28;20619;-70
2023/04/25 08:14:03;;;;;;;5.75;3.17;;;7.90;99.90;;;;;;5051643;28;20221;-70
2023/04/25 08:16:30;;;;;;;4.50;3.03;;;8.00;99.90;;;;;;5049153;28;20201;-70
2023/04/25 08:18:57;;;;;;;3.50;3.20;;;8.00;99.90;;;;;;5041650;28;20226;-70
2023/04/25 08:21:24;;;;;;;3.35;2.70;;;8.10;99.90;;;;;;5042354;28;20208;-70
2023/04/25 08:23:50;;;;;;;4.30;2.90;;;8.00;99.90;;;;;;5051260;28;20221;-70
2023/04/25 08:26:17;;;;;;;2.83;2.47;;;8.00;99.90;;;;;;5051131;28;20623;-70
2023/04/25 08:28:44;;;;;;;4.32;3.00;;;8.00;99.90;;;;;;5051370;28;20217;-70
2023/04/25 08:31:12;;;;;;;4.07;3.08;;;8.00;99.90;;;;;;5051200;28;20292;-69
2023/04/25 08:33:38;;;;;;;3.10;2.55;;;8.10;99.90;;;;;;5051167;28;20709;-70
2023/04/25 08:36:05;;;;;;;3.50;2.80;;;8.10;99.90;;;;;;5051362;28;20208;-70
2023/04/25 08:38:32;;;;;;;4.70;3.10;;;8.10;99.90;;;;;;5050789;28;20676;-70
2023/04/25 08:41:01;;;;;;;3.53;2.92;;;8.10;99.90;;;;;;5051202;28;20295;-70
2023/04/25 08:43:30;;;;;;;3.47;2.78;;;8.10;99.90;;;;;;5050354;28;20251;-69
2023/04/25 08:46:00;;;;;;;3.78;2.30;;;8.10;99.90;;;;;;5051143;28;20213;-70
2023/04/25 08:48:29;;;;;;;4.05;3.30;;;8.10;99.90;;;;;;5050762;28;20255;-70
2023/04/25 08:50:58;;;;;;;3.42;2.75;;;8.10;99.90;;;;;;5051247;28;20202;-68
2023/04/25 08:53:28;;;;;;;5.05;3.45;;;8.10;99.90;;;;;;5050577;28;20644;-69
2023/04/25 08:55:56;;;;;;;5.03;2.85;;;8.00;99.90;;;;;;5051198;28;20201;-70
2023/04/25 08:58:23;;;;;;;2.90;2.55;;;8.00;99.90;;;;;;5050772;28;20700;-71
2023/04/25 09:00:51;;;;;;;4.13;3.10;;;8.00;99.90;;;;;;5051352;28;20275;-70
2023/04/25 09:03:18;;;;;;;3.20;2.90;;;8.00;99.90;;;;;;5050351;28;20228;-70
2023/04/25 09:05:46;;;;;;;3.80;2.75;;;7.90;99.90;;;;;;5042634;28;20201;-69
2023/04/25 09:08:13;;;;;;;8.45;3.10;;;7.90;99.90;;;;;;5045683;28;20683;-71
2023/04/25 09:10:40;;;;;;;3.20;2.65;;;7.90;99.90;;;;;;5050475;28;20209;-71
2023/04/25 09:13:10;;;;;;;3.83;3.03;;;8.00;99.90;;;;;;5046968;28;20388;-70
2023/04/25 09:15:49;;;;;;;3.40;2.70;;;8.00;99.90;;;;;;5048667;28;20275;-69
2023/04/25 09:18:24;;;;;;;4.05;2.75;;;8.00;99.90;;;;;;5049239;28;20201;-69
2023/04/25 09:20:53;;;;;;;4.20;2.70;;;8.00;99.90;;;;;;5049869;28;20197;-70
2023/04/25 09:23:21;;;;;;;4.15;2.60;;;7.90;99.90;;;;;;5049138;28;20224;-70
2023/04/25 09:25:49;;;;;;;3.90;3.03;;;7.90;99.90;;;;;;5049610;28;20224;-70
2023/04/25 09:28:15;;;;;;;3.10;2.70;;;7.90;99.90;;;;;;5049032;28;20201;-69
2023/04/25 09:30:43;;;;;;;3.47;3.03;;;7.80;99.90;;;;;;5049112;28;20197;-69
2023/04/25 09:33:11;;;;;;;3.03;2.30;;;7.90;99.90;;;;;;5049400;28;20225;-70
2023/04/25 09:35:39;;;;;;;3.15;2.40;;;7.90;99.90;;;;;;5048654;28;20296;-70
2023/04/25 09:38:12;;;;;;;5.38;2.60;;;8.00;99.90;;;;;;5049851;28;20546;-70
2023/04/25 09:40:42;;;;;;;3.17;2.75;;;8.00;99.90;;;;;;5049288;28;21298;-70
2023/04/25 09:43:19;;;;;;;6.05;3.90;;;7.90;99.90;;;;;;5049179;28;20240;-70
2023/04/25 09:45:47;;;;;;;2.60;2.40;;;7.80;99.90;;;;;;5050210;28;20197;-69
2023/04/25 09:48:18;;;;;;;3.03;2.65;;;7.80;99.90;;;;;;5049576;28;20200;-69
2023/04/25 09:50:45;;;;;;;2.20;2.00;;;7.80;99.90;;;;;;5049510;28;20225;-71
2023/04/25 09:53:13;;;;;;;2.25;2.05;;;7.80;99.90;;;;;;5048920;28;20225;-69
2023/04/25 09:55:42;;;;;;;2.03;1.83;;;7.60;99.90;;;;;;5048872;28;20209;-70
2023/04/25 09:58:12;;;;;;;2.42;1.95;;;7.40;99.90;;;;;;5048647;28;20299;-69
2023/04/25 10:00:39;;;;;;;2.28;1.90;;;7.30;99.90;;;;;;5049252;28;20929;-69
2023/04/25 10:03:07;;;;;;;2.17;1.95;;;7.30;99.90;;;;;;5049133;28;20225;-70
2023/04/25 10:05:37;;;;;;;2.63;1.95;;;7.30;99.90;;;;;;5048926;28;20243;-69
2023/04/25 10:08:06;;;;;;;2.10;1.65;;;7.30;99.90;;;;;;5049417;28;20197;-70
2023/04/25 10:10:36;;;;;;;1.55;1.45;;;7.20;99.90;;;;;;5048648;28;20272;-70
2023/04/25 10:13:05;;;;;;;1.52;1.42;;;7.20;99.90;;;;;;5049155;28;20228;-69
2023/04/25 10:15:35;;;;;;;1.50;1.40;;;7.20;99.90;;;;;;5049105;28;20274;-69
2023/04/25 10:18:02;;;;;;;1.70;1.10;;;7.30;99.90;;;;;;5049535;28;20259;-71
2023/04/25 10:20:29;;;;;;;3.38;2.50;;;7.30;99.90;;;;;;5047812;28;20220;-71
2023/04/25 10:23:02;;;;;;;3.63;1.30;;;7.40;99.90;;;;;;5049112;28;20227;-70
2023/04/25 10:25:29;;;;;;;1.10;0.90;;;7.50;99.90;;;;;;5048900;28;20672;-70
2023/04/25 10:27:57;;;;;;;1.30;1.10;;;7.50;99.90;;;;;;5048702;28;20208;-71
2023/04/25 10:30:24;;;;;;;1.30;1.20;;;7.50;99.90;;;;;;5049056;28;20812;-71
2023/04/25 10:32:50;;;;;;;1.80;1.05;;;7.40;99.90;;;;;;5040130;28;20217;-70
2023/04/25 10:35:19;;;;;;;2.35;1.52;;;7.60;99.90;;;;;;5049242;28;20383;-70
2023/04/25 10:38:04;;;;;;;1.50;1.10;;;7.60;99.90;;;;;;5049605;28;20200;-71
2023/04/25 10:40:31;;;;;;;0.80;0.80;;;7.70;99.90;;;;;;5049271;28;20243;-71
2023/04/25 10:43:36;;;;;;;1.30;1.08;;;7.80;99.90;;;;;;5049068;28;20221;-71
2023/04/25 10:46:05;;;;;;;1.10;1.00;;;7.80;99.90;;;;;;5049333;28;20207;-70
2023/04/25 10:48:32;;;;;;;1.20;1.10;;;7.80;99.90;;;;;;5048852;28;20205;-71
2023/04/25 10:51:09;;;;;;;1.35;0.80;;;7.80;99.90;;;;;;5048157;28;20718;-71
2023/04/25 10:53:36;;;;;;;1.15;1.05;;;7.80;99.90;;;;;;5048821;28;20228;-70
2023/04/25 10:56:11;;;;;;;1.20;1.10;;;7.80;99.90;;;;;;5041279;28;20710;-71
2023/04/25 10:58:44;;;;;;;1.10;0.85;;;7.80;99.90;;;;;;5048753;28;20200;-71
2023/04/25 11:01:11;;;;;;;1.20;1.10;;;7.80;99.90;;;;;;5049048;28;20201;-71
2023/04/25 11:03:41;;;;;;;1.00;0.90;;;7.90;99.90;;;;;;5048914;28;20221;-70
2023/04/25 11:06:19;;;;;;;1.10;1.00;;;7.90;99.90;;;;;;5049397;28;20208;-70
2023/04/25 11:08:50;;;;;;;1.10;1.00;;;7.90;99.90;;;;;;5049072;28;20205;-71
2023/04/25 11:11:18;;;;;;;1.20;1.02;;;7.80;99.90;;;;;;5052207;28;20228;-71
2023/04/25 11:13:48;;;;;;;1.00;0.90;;;7.80;99.90;;;;;;5052543;28;20312;-70
2023/04/25 11:16:15;;;;;;;1.20;1.00;;;7.80;99.90;;;;;;5052926;28;20247;-70
2023/04/25 11:18:42;;;;;;;2.60;1.77;;;7.60;99.90;;;;;;5052552;28;20213;-71
2023/04/25 11:21:09;;;;;;;1.45;1.25;;;7.60;99.90;;;;;;5052490;28;20679;-70
2023/04/25 11:23:36;;;;;;;1.55;1.45;;;7.50;99.90;;;;;;5049037;28;20699;-70
2023/04/25 11:26:03;;;;;;;1.90;1.67;;;7.50;99.90;;;;;;5044437;28;20209;-71
2023/04/25 11:28:30;;;;;;;1.98;1.77;;;7.60;99.90;;;;;;5043697;28;20224;-71
2023/04/25 11:30:58;;;;;;;1.65;1.52;;;7.60;99.90;;;;;;5051768;28;20692;-69
2023/04/25 11:33:26;;;;;;;2.15;1.88;;;7.60;99.90;;;;;;5051495;28;20580;-71
2023/04/25 11:35:56;;;;;;;1.88;1.73;;;7.60;99.90;;;;;;5044317;28;20197;-71
2023/04/25 11:38:23;;;;;;;1.55;1.40;;;7.70;99.90;;;;;;5035936;28;20244;-70
2023/04/25 11:40:51;;;;;;;1.50;1.20;;;7.80;99.90;;;;;;5032928;28;20201;-71
2023/04/25 11:43:20;;;;;;;1.08;0.98;;;8.00;99.90;;;;;;5031981;28;20245;-70
2023/04/25 11:45:48;;;;;;;1.20;1.00;;;8.10;99.90;;;;;;5031656;28;20202;-70
2023/04/25 11:48:16;;;;;;;1.90;1.48;;;8.40;99.90;;;;;;5032193;28;20202;-70
2023/04/25 11:50:43;;;;;;;2.78;1.65;;;8.70;99.90;;;;;;5031826;28;20237;-70
2023/04/25 11:53:10;;;;;;;1.60;1.50;;;8.90;99.90;;;;;;5039828;28;20218;-70
2023/04/25 11:55:37;;;;;;;1.98;1.60;;;9.00;99.90;;;;;;5041126;28;20633;-70
2023/04/25 11:58:05;;;;;;;1.40;1.30;;;9.10;99.90;;;;;;5043408;28;20696;-69
2023/04/25 12:00:32;;;;;;;2.30;1.70;;;9.10;99.90;;;;;;5042525;28;20197;-70
2023/04/25 12:02:59;;;;;;;1.95;1.85;;;9.10;99.90;;;;;;5044120;28;20607;-70
2023/04/25 12:05:29;;;;;;;1.70;1.60;;;9.10;99.90;;;;;;5043872;28;20202;-71
2023/04/25 12:07:56;;;;;;;1.90;1.60;;;9.20;99.90;;;;;;5035318;28;20201;-69
2023/04/25 12:10:25;;;;;;;1.90;1.60;;;9.20;99.90;;;;;;5031211;28;20248;-70
2023/04/25 12:12:52;;;;;;;2.00;1.63;;;9.20;99.90;;;;;;5044685;28;20229;-69
2023/04/25 12:15:24;;;;;;;1.80;1.70;;;9.20;99.90;;;;;;5050903;28;20205;-71
2023/04/25 12:17:53;;;;;;;1.98;1.80;;;9.00;99.90;;;;;;5050872;28;20212;-71
2023/04/25 12:20:23;;;;;;;2.13;1.90;;;9.00;99.90;;;;;;5050607;28;20198;-70
2023/04/25 12:22:52;;;;;;;2.45;1.73;;;9.00;99.90;;;;;;5049712;28;20252;-71
2023/04/25 12:25:37;;;;;;;2.72;2.00;;;9.00;99.90;;;;;;5050888;28;20687;-70
2023/04/25 12:28:12;;;;;;;2.33;2.13;;;9.00;99.90;;;;;;5044104;28;20267;-71
2023/04/25 12:30:57;;;;;;;2.22;2.00;;;9.00;99.90;;;;;;5041607;28;20227;-71
2023/04/25 12:33:24;;;;;;;2.38;2.17;;;9.10;99.90;;;;;;5044423;28;20286;-71
2023/04/25 12:35:51;;;;;;;4.35;2.50;;;9.30;99.90;;;;;;5050171;28;20201;-70
2023/04/25 12:38:31;;;;;;;3.20;2.50;;;9.40;99.90;;;;;;5050173;28;20205;-71
2023/04/25 12:40:58;;;;;;;2.70;2.10;;;9.40;99.90;;;;;;5050748;28;20205;-69
2023/04/25 12:43:25;;;;;;;2.42;2.20;;;9.40;99.90;;;;;;5050091;28;20240;-71
2023/04/25 12:45:53;;;;;;;3.75;3.33;;;9.30;99.90;;;;;;5047648;28;20217;-71
2023/04/25 12:48:20;;;;;;;2.45;2.25;;;9.30;99.90;;;;;;5049343;28;20579;-71
2023/04/25 12:50:48;;;;;;;2.92;2.40;;;9.20;99.90;;;;;;5050590;28;20287;-71
2023/04/25 12:53:15;;;;;;;6.38;3.15;;;9.30;99.90;;;;;;5047271;28;20607;-71
2023/04/25 12:55:45;;;;;;;3.08;2.50;;;9.40;99.90;;;;;;5049602;28;20221;-71
2023/04/25 12:58:12;;;;;;;3.22;2.55;;;9.40;99.90;;;;;;5049126;28;20560;-70
2023/04/25 13:00:39;;;;;;;2.65;2.22;;;9.60;99.90;;;;;;5048349;28;20208;-70
2023/04/25 13:03:06;;;;;;;3.15;2.80;;;9.70;99.90;;;;;;5048870;28;20244;-70
2023/04/25 13:05:32;;;;;;;3.20;2.90;;;9.80;99.90;;;;;;5049162;28;20209;-69